AirNav   Everest Fuels
 
 834 users online  

43OR Inspiration Airport
Bend, Oregon, USA

GOING TO BEND?


FAA INFORMATION EFFECTIVE 21 MAY 2020

Location

FAA Identifier: 43OR
Lat/Long: 44-05-32.0000N 121-09-03.0000W
44-05.533333N 121-09.050000W
44.0922222,-121.1508333
(estimated)
Elevation: 3400 ft. / 1036 m (estimated)
Variation: 18E (1995)
From city: 8 miles NW of BEND, OR
Time zone: UTC -7 (UTC -8 during Standard Time)
Zip code: 97701

Airport Operations

Airport use: Private use. Permission required prior to landing
Activation date: 11/1997
Control tower: no
ARTCC: SEATTLE CENTER
FSS: MC MINNVILLE FLIGHT SERVICE STATION
Attendance: UNATNDD
Segmented circle: no

Airport Communications

WX AWOS-3 at BDN (2.1 nm W): 134.425 (541-382-1477)
WX ASOS at RDM (10 nm N): 119.025 (541-504-8743)
WX AWOS-3PT at S39 (16 nm NE): 118.325 (541-447-4060)
WX AWOS-3PT at S21 (18 nm SW): 128.325 (541-593-4623)

Nearby radio navigation aids

VOR radial/distance  VOR name  Freq  Var
DSDr128/11.7DESCHUTES VORTAC117.6018E

Airport Services

Runway Information

Runway 7/25

Dimensions: 1900 x 60 ft. / 579 x 18 m
Surface: turf
Operational restrictions: ARRIVALS TO THE WEST; DEPARTURES TO THE EAST.
RUNWAY 7  RUNWAY 25
Traffic pattern: leftleft
Obstructions: 20 ft. brush, 25 ft. from runway35 ft. trees, 40 ft. from runway

Airport Ownership and Management from official FAA records

Ownership: Privately-owned
Owner: PETER & MARIANNE VAN KESSEL
63136 TERRY DR
BEND, OR 97701
Phone 541-317-1239
Manager: PETER & MARIANNE VAN KESSEL
63136 TERRY DR
BEND, OR 97701
Phone 541-317-1239

Additional Remarks

FOR CD CTC SEATTLE ARTCC AT 253-351-3694.

Instrument Procedures

There are no published instrument procedures at 43OR.

Some nearby airports with instrument procedures:

KBDN - Bend Municipal Airport (2 nm W)
KRDM - Roberts Field Airport (10 nm N)
S39 - Prineville Airport (16 nm NE)
S21 - Sunriver Airport (18 nm SW)
S33 - Madras Municipal Airport (35 nm N)
 
Loc | Ops | Rwys | IFR | FBO | Links
Com | Nav | Svcs | Stats | Notes
Aerial photo
No photo
 
Sectional chart

 
Airport distance calculator
Flying to Inspiration Airport? Find the distance to fly.

From to 43OR

Sunrise and sunset
Times for 06-Jun-2020
 Local
(UTC-7)
 Zulu
(UTC)
Morning civil twilight04:4711:47
Sunrise05:2312:23
Sunset20:4403:44
Evening civil twilight21:2004:20

Current date and time
Zulu (UTC)  07-Jun-2020 02:14:15
Local (UTC-7)  06-Jun-2020 19:14:15
 
METAR
KBDN 
2nm W 
070155Z AUTO 33005KT 10SM FEW045 FEW050 FEW075 10/01 A2985 RMK AO2
KRDM 
9nm N 
070156Z 29021G26KT 10SM BKN075 OVC085 11/M01 A2983 RMK AO2 PK WND 29026/0155 SLP097 T01061006
KS39 
16nm NE 
070155Z AUTO 27016G26KT 10SM FEW049 FEW060 SCT080 09/M00 A2983 RMK AO2
KS21 
18nm SW 
070155Z AUTO 26011G19KT 10SM SCT027 SCT075 06/M00 A2989 RMK AO2
TAF
KBDN 
2nm W 
062137Z 0622/0718 36006KT P6SM SCT050 FM070000 29014KT P6SM VCSH BKN040 OVC050 FM070500 23011KT P6SM OVC050 FM071500 24010KT P6SM OVC040
KRDM 
9nm N 
062136Z 0622/0718 29014KT P6SM VCSH SCT050 BKN070 FM070000 29017G25KT P6SM VCSH BKN050 OVC060 FM070400 30017G24KT P6SM OVC050 FM070900 23015KT P6SM OVC050 FM071500 28014KT P6SM OVC040
NOTAMs
Click for the latest NOTAMs
NOTAMs are issued by the DoD/FAA and will open in a separate window not controlled by AirNav.

 

 
 

Would you like to see your business listed on this page?

 If your business provides an interesting product or service to pilots, flight crews, aircraft, or users of the Inspiration Airport, you should consider listing it here.  To start the listing process, click on the button below
 
Add a business
 

Other Pages about Inspiration Airport

Update a link
 
Copyright © AirNav, LLC. All rights reserved. Privacy Policy  Contact